122-й км

Карта отелей и гостиниц, располагающихся рядом с аэропортом 122-й км :

122-й км Ханты-Мансийский автономный округ - Югра 62° 56' 11.6412" N, 62° 1' 25.32" E
122-й км Ханты-Мансийский автономный округ - Югра 62° 56' 11.6412" N, 62° 1' 25.32" E
Код аэродрома ИКАО
HB39
Код аэродрома RU
ХБ39
Координаты
N62.93657° E062.02370°
Превышение над уровнем моря
60
Основная полоса
34/16
Курс магнитный
340,4/160,4
Длина основной ВПП
24
Ширина основной ВПП
24
Покрытие основной ВПП
Твёрдое
Освещение ВПП
Нет
Тип: 
Вертодром
Класс аэродрома: 
Принадлежность: 
ГА
Статус: 
Действующий
Сайт: 
E-mail аэродрома: 
Страна: 
Россия
Регион: 
Ханты-Мансийский автономный округ - Югра
Город: 
Дополнительная информация: 
Оператор: нет данных.


Найти трансфер

С помощью этой формы Вы можете найти трансфер из аэропорта 122-й км в город, аэропорт или вокзал:

Погода в аэропортах:

Авиационная погода в Витебске

Регион: 
Погода METAR: 
UMII 290800Z 21005G08MPS 8000 -SHRA SCT023 BKN035CB 12/05 Q1009 TEMPO 2100 BKN005
Время наблюдения
2022-05-29T08:00:00Z
Температура C
12.0
Точка росы
5.0
Направление ветра
210
Скорость ветра (узлы)
10
Метео видимость
4.97
Облачность
SCT
BKN
Нижняя граница облачности (футы)
2300
3500
Явления погоды
-SHRA
Условия полета
MVFR
SCT – разбросанная отдельная облачность; BKN – значительная (рассеянная, разорванная) облачность;
-SHRA - слабый ливневой дождь;

Авиационная погода в аэропорту Имени Алексея Леонова

Регион: 
Погода METAR: 
UNEE 290730Z 28005MPS 9999 -RA SCT040 20/10 Q1011 R23/CLRD60 NOSIG RMK QFE735
Время наблюдения
2022-05-29T07:30:00Z
Температура C
20.0
Точка росы
10.0
Направление ветра
280
Скорость ветра (узлы)
10
Метео видимость
6.21
Облачность
SCT
Нижняя граница облачности (футы)
4000
Явления погоды
-RA
Условия полета
VFR
Аэропорт подробнее: 
SCT – разбросанная отдельная облачность;
-RA - слабый дождь;

Авиационная погода в Игнатьево

Регион: 
Погода METAR: 
UHBB 290730Z 09003MPS 9999 -SHRA BKN026CB 14/12 Q0998 R36/090060 NOSIG RMK QFE731/0975
Время наблюдения
2022-05-29T07:30:00Z
Температура C
14.0
Точка росы
12.0
Направление ветра
90
Скорость ветра (узлы)
6
Метео видимость
6.21
Облачность
BKN
Нижняя граница облачности (футы)
2600
Явления погоды
-SHRA
Условия полета
MVFR
Аэропорт подробнее: 
BKN – значительная (рассеянная, разорванная) облачность;
-SHRA - слабый ливневой дождь;

Авиационная погода в Ботсфьорде

Регион: 
Погода METAR: 
ENBS 290720Z AUTO 02011KT 0100 FG VV001 03/03 Q1016
Время наблюдения
2022-05-29T07:20:00Z
Температура C
3.0
Точка росы
3.0
Направление ветра
20
Скорость ветра (узлы)
11
Метео видимость
0.06
Облачность
OVX
Нижняя граница облачности (футы)
0
Явления погоды
FG
Условия полета
LIFR
FG – туман (небо не видно, температура воздуха выше нуля или ноль);